createdAt,value
2018-06-08T00:01:00.676Z,31.17
2018-06-08T00:03:29.112Z,31.60
2018-06-08T00:05:57.549Z,31.40
2018-06-08T00:08:26.033Z,30.63
2018-06-08T00:10:54.452Z,30.20
2018-06-08T00:13:22.876Z,30.87
2018-06-08T00:15:51.659Z,30.90
2018-06-08T00:18:20.630Z,29.00
2018-06-08T00:20:49.147Z,30.70
2018-06-08T00:23:17.568Z,29.47
2018-06-08T00:25:46.326Z,30.73
2018-06-08T00:28:14.787Z,30.57
2018-06-08T00:30:43.240Z,29.40
2018-06-08T00:33:11.670Z,30.93
2018-06-08T00:35:40.080Z,30.00
2018-06-08T00:38:08.539Z,31.53
2018-06-08T00:40:37.142Z,31.90
2018-06-08T00:43:05.718Z,32.00
2018-06-08T00:45:34.351Z,28.90
2018-06-08T00:48:03.055Z,32.53
2018-06-08T00:50:31.495Z,32.00
2018-06-08T00:53:00.328Z,32.90
2018-06-08T00:55:29.156Z,33.47
2018-06-08T00:57:57.582Z,31.93
2018-06-08T01:00:26.020Z,32.50
2018-06-08T01:02:54.434Z,31.97
2018-06-08T01:05:22.876Z,30.20
2018-06-08T01:07:51.348Z,29.20
2018-06-08T01:10:19.820Z,29.93
2018-06-08T01:12:48.266Z,29.63
2018-06-08T01:15:17.444Z,29.60
2018-06-08T01:17:45.928Z,29.80
2018-06-08T01:20:14.331Z,30.57
2018-06-08T01:22:42.952Z,31.90
2018-06-08T01:25:11.332Z,31.27
2018-06-08T01:27:40.158Z,30.87
2018-06-08T01:30:08.865Z,29.87
2018-06-08T01:32:37.819Z,30.57
2018-06-08T01:35:07.444Z,31.20
2018-06-08T01:37:36.379Z,30.80
2018-06-08T01:40:04.913Z,32.87
2018-06-08T01:42:33.773Z,31.20
2018-06-08T01:45:02.217Z,33.27
2018-06-08T01:47:30.658Z,33.30
2018-06-08T01:49:59.072Z,32.57
2018-06-08T01:52:27.532Z,33.13
2018-06-08T01:54:56.057Z,32.07
2018-06-08T01:57:24.636Z,32.67
2018-06-08T01:59:53.111Z,33.13
2018-06-08T02:02:21.594Z,35.17
2018-06-08T02:04:50.679Z,35.00
2018-06-08T02:07:19.082Z,34.90
2018-06-08T02:09:47.500Z,34.30
2018-06-08T02:12:15.939Z,34.07
2018-06-08T02:14:44.584Z,35.73
2018-06-08T02:17:13.196Z,35.50
2018-06-08T02:19:41.684Z,36.70
2018-06-08T02:22:10.299Z,37.53
2018-06-08T02:24:38.744Z,38.30
2018-06-08T02:27:07.240Z,38.47
2018-06-08T02:29:35.676Z,37.77
2018-06-08T02:32:04.124Z,36.47
2018-06-08T02:34:32.620Z,38.70
2018-06-08T02:37:01.064Z,37.07
2018-06-08T02:39:29.529Z,36.57
2018-06-08T02:41:58.200Z,39.07
2018-06-08T02:44:26.974Z,39.87
2018-06-08T02:46:55.493Z,39.70
2018-06-08T02:49:24.044Z,38.47
2018-06-08T02:51:52.491Z,31.70
2018-06-08T02:54:20.879Z,28.37
2018-06-08T03:03:33.803Z,23.27
2018-06-08T03:06:02.236Z,27.10
2018-06-08T03:08:30.639Z,25.70
2018-06-08T03:10:59.084Z,24.30
2018-06-08T03:13:27.509Z,23.77
2018-06-08T03:15:56.499Z,22.00
2018-06-08T03:18:25.483Z,23.00
2018-06-08T03:20:54.017Z,23.67
2018-06-08T03:23:23.092Z,24.17
2018-06-08T03:25:51.870Z,23.63
2018-06-08T03:28:20.514Z,24.20
2018-06-08T03:30:49.343Z,25.20
2018-06-08T03:33:19.276Z,24.80
2018-06-08T03:35:48.187Z,27.10
2018-06-08T03:38:16.614Z,26.80
2018-06-08T03:40:45.332Z,27.43
2018-06-08T03:43:13.844Z,28.07
2018-06-08T03:45:42.327Z,28.83
2018-06-08T03:48:11.142Z,28.70
2018-06-08T03:50:39.603Z,28.20
2018-06-08T03:53:08.457Z,30.10
2018-06-08T03:55:36.959Z,29.30
2018-06-08T03:58:06.031Z,30.60
2018-06-08T04:00:35.139Z,33.63
2018-06-08T04:03:04.367Z,33.30
2018-06-08T04:05:33.532Z,34.10
2018-06-08T04:08:02.144Z,34.43
2018-06-08T04:10:31.328Z,36.57
2018-06-08T04:13:00.065Z,36.93
2018-06-08T04:15:28.534Z,37.27
2018-06-08T04:17:57.104Z,39.40
2018-06-08T04:20:26.194Z,37.33
2018-06-08T04:22:55.507Z,36.43
2018-06-08T04:25:23.968Z,32.90
2018-06-08T04:27:53.336Z,33.40
2018-06-08T04:30:22.033Z,34.63
2018-06-08T04:32:50.631Z,32.33
2018-06-08T04:35:19.050Z,34.03
2018-06-08T04:37:47.461Z,35.23
2018-06-08T04:40:15.921Z,39.23
2018-06-08T04:42:44.373Z,41.30
2018-06-08T04:45:12.825Z,30.33
2018-06-08T04:47:41.278Z,34.50
2018-06-08T04:50:09.701Z,31.73
2018-06-08T04:52:38.103Z,33.93
2018-06-08T04:55:06.530Z,33.50
2018-06-08T04:57:34.954Z,29.80
2018-06-08T05:00:03.415Z,29.73
2018-06-08T05:02:31.830Z,28.80
2018-06-08T05:05:00.235Z,28.37
2018-06-08T05:07:28.676Z,29.47
2018-06-08T05:09:57.118Z,28.00
2018-06-08T05:12:25.546Z,27.97
2018-06-08T05:14:53.942Z,29.40
2018-06-08T05:17:22.399Z,33.73
2018-06-08T05:19:50.843Z,31.83
2018-06-08T05:22:19.260Z,30.47
2018-06-08T05:24:47.703Z,30.00
2018-06-08T05:27:16.115Z,29.70
2018-06-08T05:29:45.019Z,29.10
2018-06-08T05:32:13.433Z,27.70
2018-06-08T05:34:41.876Z,28.87
2018-06-08T05:43:54.502Z,28.87
2018-06-08T05:46:22.936Z,28.70
2018-06-08T05:48:51.378Z,60.03
2018-06-08T05:51:19.796Z,38.43
2018-06-08T05:53:48.310Z,33.97
2018-06-08T05:56:16.870Z,29.90
2018-06-08T05:58:45.288Z,28.47
2018-06-08T06:01:13.743Z,34.47
2018-06-08T06:03:42.152Z,32.13
2018-06-08T06:06:10.586Z,32.93
2018-06-08T06:08:38.995Z,35.87
2018-06-08T06:11:07.403Z,35.97
2018-06-08T06:13:35.877Z,35.07
2018-06-08T06:16:04.303Z,33.47
2018-06-08T06:18:32.750Z,30.53
2018-06-08T06:21:01.206Z,26.70
2018-06-08T06:23:29.639Z,26.13
2018-06-08T06:25:58.062Z,24.13
2018-06-08T06:28:26.543Z,22.33
2018-06-08T06:30:54.982Z,21.37
2018-06-08T06:33:23.403Z,21.00
2018-06-08T06:35:51.868Z,20.40
2018-06-08T06:38:20.275Z,22.05
2018-06-08T06:40:48.987Z,19.17
2018-06-08T06:43:17.422Z,20.33
2018-06-08T06:45:45.894Z,20.47
2018-06-08T06:48:14.355Z,20.80
2018-06-08T06:50:42.784Z,19.97
2018-06-08T06:53:11.661Z,20.13
2018-06-08T06:55:40.111Z,19.93
2018-06-08T06:58:08.519Z,20.13
2018-06-08T07:00:37.057Z,20.10
2018-06-08T07:03:05.524Z,19.53
2018-06-08T07:05:33.934Z,19.47
2018-06-08T07:08:02.422Z,21.00
2018-06-08T07:10:30.884Z,20.20
2018-06-08T07:12:59.338Z,19.47
2018-06-08T07:15:27.765Z,21.37
2018-06-08T07:17:56.223Z,20.40
2018-06-08T07:20:24.623Z,19.47
2018-06-08T07:22:53.093Z,19.90
2018-06-08T07:25:21.563Z,21.27
2018-06-08T07:27:49.979Z,18.73
2018-06-08T07:30:18.511Z,20.27
2018-06-08T07:32:46.933Z,21.73
2018-06-08T07:35:15.396Z,20.60
2018-06-08T07:37:43.779Z,18.73
2018-06-08T07:40:12.211Z,16.63
2018-06-08T07:42:40.679Z,18.20
2018-06-08T07:45:09.097Z,22.03
2018-06-08T07:47:37.555Z,19.87
2018-06-08T07:50:05.998Z,18.70
2018-06-08T07:52:34.512Z,19.03
2018-06-08T07:55:02.909Z,17.77
2018-06-08T07:57:31.348Z,16.73
2018-06-08T07:59:59.906Z,16.90
2018-06-08T08:02:28.319Z,17.47
2018-06-08T08:04:56.804Z,17.43
2018-06-08T08:07:25.249Z,16.27
2018-06-08T08:09:53.683Z,17.87
2018-06-08T08:12:22.084Z,13.80
2018-06-08T08:14:50.775Z,16.30
2018-06-08T08:17:19.220Z,15.47
2018-06-08T08:19:47.626Z,14.33
2018-06-08T08:22:16.063Z,14.40
2018-06-08T08:24:44.647Z,13.43
2018-06-08T08:27:13.303Z,15.33
2018-06-08T08:29:41.744Z,12.97
2018-06-08T08:32:10.223Z,15.40
2018-06-08T08:34:38.652Z,16.80
2018-06-08T08:37:07.167Z,14.73
2018-06-08T08:39:35.605Z,15.00
2018-06-08T08:42:04.041Z,15.57
2018-06-08T08:44:32.443Z,14.33
2018-06-08T08:47:00.870Z,13.30
2018-06-08T08:49:29.302Z,13.10
2018-06-08T08:51:57.745Z,17.43
2018-06-08T08:54:26.225Z,13.97
2018-06-08T08:56:54.733Z,14.07
2018-06-08T08:59:23.071Z,12.40
2018-06-08T09:01:51.525Z,12.90
2018-06-08T09:04:19.936Z,13.23
2018-06-08T09:06:48.378Z,12.43
2018-06-08T09:09:17.029Z,11.90
2018-06-08T09:11:45.487Z,12.20
2018-06-08T09:14:13.896Z,11.27
2018-06-08T09:18:11.472Z,9.20
2018-06-08T09:20:39.931Z,10.23
2018-06-08T09:23:08.413Z,9.87
2018-06-08T09:25:36.800Z,7.73
2018-06-08T09:28:05.422Z,10.37
2018-06-08T09:30:33.886Z,9.43
2018-06-08T09:33:02.313Z,10.03
2018-06-08T09:35:30.783Z,9.50
2018-06-08T09:37:59.193Z,10.60
2018-06-08T09:40:27.625Z,10.10
2018-06-08T09:42:56.051Z,7.87
2018-06-08T09:45:24.695Z,7.87
2018-06-08T09:47:53.449Z,7.80
2018-06-08T09:50:21.843Z,9.50
2018-06-08T09:52:50.275Z,9.83
2018-06-08T09:55:18.837Z,8.03
2018-06-08T09:57:47.239Z,9.40
2018-06-08T10:00:19.791Z,11.60
2018-06-08T10:02:48.208Z,10.80
2018-06-08T10:05:16.650Z,11.30
2018-06-08T10:07:45.360Z,10.87
2018-06-08T10:10:13.788Z,10.50
2018-06-08T10:12:42.207Z,10.40
2018-06-08T10:15:10.816Z,11.40
2018-06-08T10:17:39.256Z,11.90
2018-06-08T10:20:07.707Z,12.30
2018-06-08T10:22:36.122Z,12.67
2018-06-08T10:25:04.938Z,11.57
2018-06-08T10:27:33.364Z,10.60
2018-06-08T10:30:01.758Z,8.93
2018-06-08T10:32:30.415Z,8.17
2018-06-08T10:34:58.812Z,8.53
2018-06-08T10:37:27.277Z,8.50
2018-06-08T10:39:55.885Z,8.50
2018-06-08T10:42:24.260Z,7.70
2018-06-08T10:44:52.676Z,8.60
2018-06-08T10:47:21.063Z,7.93
2018-06-08T10:49:49.511Z,8.23
2018-06-08T10:52:18.068Z,8.37
2018-06-08T10:54:46.932Z,8.17
2018-06-08T10:57:15.357Z,7.73
2018-06-08T10:59:44.247Z,8.30
2018-06-08T11:02:12.675Z,7.47
2018-06-08T11:04:41.080Z,7.90
2018-06-08T11:07:09.543Z,8.17
2018-06-08T11:09:37.962Z,6.73
2018-06-08T11:12:06.781Z,7.50
2018-06-08T11:14:35.252Z,7.03
2018-06-08T11:17:03.710Z,7.83
2018-06-08T11:21:01.294Z,7.50
2018-06-08T11:23:29.885Z,8.17
2018-06-08T11:25:58.336Z,6.50
2018-06-08T11:28:26.990Z,6.03
2018-06-08T11:30:55.387Z,5.43
2018-06-08T11:33:23.799Z,6.00
2018-06-08T11:35:52.207Z,6.50
2018-06-08T11:38:20.707Z,5.23
2018-06-08T11:40:49.134Z,5.03
2018-06-08T11:43:17.512Z,5.33
2018-06-08T11:45:45.954Z,4.90
2018-06-08T11:48:14.701Z,6.40
2018-06-08T11:50:43.133Z,4.93
2018-06-08T11:53:11.570Z,3.83
2018-06-08T11:55:40.016Z,4.93
2018-06-08T11:58:08.391Z,4.67
2018-06-08T12:00:36.857Z,4.83
2018-06-08T12:03:05.295Z,5.43
2018-06-08T12:05:33.731Z,4.40
2018-06-08T12:08:02.147Z,5.13
2018-06-08T12:10:30.587Z,3.53
2018-06-08T12:12:59.032Z,3.80
2018-06-08T12:15:28.024Z,4.10
2018-06-08T12:17:56.475Z,3.37
2018-06-08T12:20:25.149Z,3.43
2018-06-08T12:22:53.556Z,3.67
2018-06-08T12:25:21.999Z,3.40
2018-06-08T12:27:50.420Z,3.57
2018-06-08T12:30:18.932Z,3.60
2018-06-08T12:32:47.352Z,3.50
2018-06-08T12:35:15.759Z,3.30
2018-06-08T12:37:44.243Z,3.20
2018-06-08T12:40:12.790Z,3.57
2018-06-08T12:42:41.215Z,3.13
2018-06-08T12:45:09.656Z,3.27
2018-06-08T12:47:38.068Z,3.50
2018-06-08T12:50:06.923Z,3.07
2018-06-08T12:52:35.363Z,3.23
2018-06-08T12:55:03.783Z,3.77
2018-06-08T12:57:32.179Z,3.37
2018-06-08T13:00:00.578Z,3.37
2018-06-08T13:02:29.209Z,3.43
2018-06-08T13:04:57.611Z,3.23
2018-06-08T13:07:26.036Z,3.23
2018-06-08T13:09:54.460Z,3.10
2018-06-08T13:12:23.161Z,3.37
2018-06-08T13:14:51.688Z,2.80
2018-06-08T13:17:20.076Z,3.10
2018-06-08T13:19:48.532Z,2.77
2018-06-08T13:22:16.928Z,3.07
2018-06-08T13:24:45.296Z,3.30
2018-06-08T13:27:13.894Z,3.00
2018-06-08T13:29:42.300Z,2.70
2018-06-08T13:32:10.740Z,2.77
2018-06-08T13:34:39.342Z,3.10
2018-06-08T13:37:07.766Z,2.67
2018-06-08T13:39:36.267Z,3.23
2018-06-08T13:42:05.068Z,3.10
2018-06-08T13:44:33.806Z,2.90
2018-06-08T13:47:02.234Z,2.97
2018-06-08T13:49:30.846Z,3.80
2018-06-08T13:51:59.268Z,3.30
2018-06-08T13:54:27.699Z,3.67
2018-06-08T13:56:56.143Z,3.97
2018-06-08T13:59:25.490Z,4.00
2018-06-08T14:01:53.935Z,4.03
2018-06-08T14:04:22.546Z,4.50
2018-06-08T14:06:50.980Z,4.60
2018-06-08T14:09:19.384Z,4.20
2018-06-08T14:11:47.768Z,4.73
2018-06-08T14:14:16.405Z,4.10
2018-06-08T14:16:44.867Z,4.10
2018-06-08T14:19:13.332Z,4.40
2018-06-08T14:21:41.746Z,4.13
2018-06-08T14:24:10.379Z,5.10
2018-06-08T14:26:38.803Z,5.13
2018-06-08T14:29:07.424Z,5.83
2018-06-08T14:31:36.116Z,4.73
2018-06-08T14:34:04.552Z,5.10
2018-06-08T14:36:32.992Z,4.60
2018-06-08T14:39:01.363Z,4.30
2018-06-08T14:41:29.800Z,4.50
2018-06-08T14:43:58.339Z,5.30
2018-06-08T14:46:26.747Z,4.37
2018-06-08T14:48:55.727Z,4.10
2018-06-08T14:51:24.238Z,4.40
2018-06-08T14:53:52.827Z,5.33
2018-06-08T14:56:21.320Z,6.33
2018-06-08T14:58:49.879Z,5.37
2018-06-08T15:01:18.623Z,5.00
2018-06-08T15:03:47.035Z,5.27
2018-06-08T15:06:15.458Z,5.60
2018-06-08T15:08:43.945Z,5.13
2018-06-08T15:11:12.421Z,4.37
2018-06-08T15:13:40.850Z,4.93
2018-06-08T15:16:09.453Z,5.23
2018-06-08T15:18:37.918Z,4.67
2018-06-08T15:21:06.656Z,4.77
2018-06-08T15:23:36.008Z,5.50
2018-06-08T15:26:04.575Z,5.63
2018-06-08T15:28:33.170Z,5.53
2018-06-08T15:31:02.056Z,5.30
2018-06-08T15:33:30.540Z,5.20
2018-06-08T15:35:59.131Z,5.73
2018-06-08T15:38:27.582Z,6.20
2018-06-08T15:40:55.950Z,6.10
2018-06-08T15:43:24.874Z,5.00
2018-06-08T15:45:53.283Z,4.83
2018-06-08T15:48:21.792Z,6.17
2018-06-08T15:50:50.471Z,6.10
2018-06-08T15:53:18.867Z,5.30
2018-06-08T15:55:48.012Z,5.50
2018-06-08T15:58:16.432Z,5.83
2018-06-08T16:00:44.879Z,6.90
2018-06-08T16:03:13.755Z,6.17
2018-06-08T16:05:42.199Z,5.60
2018-06-08T16:08:10.607Z,6.27
2018-06-08T16:10:39.063Z,6.47
2018-06-08T16:13:07.459Z,5.83
2018-06-08T16:15:35.843Z,7.10
2018-06-08T16:18:04.788Z,6.60
2018-06-08T16:20:33.243Z,6.70
2018-06-08T16:23:01.622Z,6.20
2018-06-08T16:25:30.071Z,7.07
2018-06-08T16:27:58.628Z,6.53
2018-06-08T16:30:27.078Z,6.87
2018-06-08T16:32:55.476Z,7.30
2018-06-08T16:35:23.900Z,7.00
2018-06-08T16:37:52.336Z,6.50
2018-06-08T16:40:20.879Z,6.63
2018-06-08T16:42:49.718Z,7.30
2018-06-08T16:45:18.159Z,8.53
2018-06-08T16:47:46.592Z,8.20
2018-06-08T16:50:15.044Z,7.37
2018-06-08T16:52:43.461Z,7.97
2018-06-08T16:55:11.886Z,8.47
2018-06-08T16:57:40.295Z,7.70
2018-06-08T17:00:08.706Z,10.57
2018-06-08T17:02:37.131Z,9.00
2018-06-08T17:05:05.895Z,8.47
2018-06-08T17:07:34.335Z,9.20
2018-06-08T17:10:02.742Z,8.50
2018-06-08T17:12:31.834Z,8.47
2018-06-08T17:15:00.647Z,9.40
2018-06-08T17:17:29.352Z,8.43
2018-06-08T17:19:57.763Z,9.37
2018-06-08T17:22:26.160Z,8.57
2018-06-08T17:24:54.605Z,9.60
2018-06-08T17:27:23.012Z,10.20
2018-06-08T17:29:51.521Z,8.97
2018-06-08T17:32:20.285Z,9.73
2018-06-08T17:34:48.688Z,10.43
2018-06-08T17:37:17.115Z,9.53
2018-06-08T17:39:45.554Z,9.00
2018-06-08T17:42:14.072Z,11.30
2018-06-08T17:44:42.464Z,10.37
2018-06-08T17:47:10.926Z,11.37
2018-06-08T17:49:39.407Z,11.57
2018-06-08T17:52:07.871Z,11.97
2018-06-08T17:54:36.291Z,10.80
2018-06-08T17:57:05.010Z,11.13
2018-06-08T17:59:33.423Z,10.67
2018-06-08T18:02:02.109Z,10.50
2018-06-08T18:04:30.544Z,10.13
2018-06-08T18:06:58.956Z,9.10
2018-06-08T18:09:27.343Z,9.70
2018-06-08T18:11:55.808Z,11.77
2018-06-08T18:14:24.257Z,11.43
2018-06-08T18:16:52.968Z,10.80
2018-06-08T18:19:21.458Z,9.80
2018-06-08T18:21:50.021Z,10.60
2018-06-08T18:24:18.438Z,9.67
2018-06-08T18:26:46.877Z,12.20
2018-06-08T18:29:15.448Z,10.80
2018-06-08T18:31:43.948Z,9.50
2018-06-08T18:34:12.382Z,9.67
2018-06-08T18:36:40.858Z,9.30
2018-06-08T18:39:09.455Z,13.60
2018-06-08T18:41:37.872Z,9.33
2018-06-08T18:44:06.393Z,9.23
2018-06-08T18:46:34.805Z,8.70
2018-06-08T18:49:03.228Z,9.90
2018-06-08T18:51:31.704Z,9.20
2018-06-08T18:54:00.176Z,8.70
2018-06-08T18:56:28.697Z,10.20
2018-06-08T18:58:57.081Z,9.63
2018-06-08T19:01:25.544Z,9.23
2018-06-08T19:03:53.990Z,10.03
2018-06-08T19:06:22.482Z,10.80
2018-06-08T19:08:50.902Z,11.83
2018-06-08T19:11:19.564Z,11.00
2018-06-08T19:13:48.220Z,10.70
2018-06-08T19:16:16.995Z,10.03
2018-06-08T19:18:45.452Z,10.17
2018-06-08T19:21:13.881Z,12.77
2018-06-08T19:23:42.299Z,11.87
2018-06-08T19:26:10.748Z,11.80
2018-06-08T19:28:39.155Z,11.30
2018-06-08T19:31:07.820Z,10.50
2018-06-08T19:33:36.227Z,9.83
2018-06-08T19:36:04.680Z,9.90
2018-06-08T19:38:33.209Z,10.73
2018-06-08T19:41:01.673Z,8.50
2018-06-08T19:43:30.302Z,8.63
2018-06-08T19:45:58.720Z,8.80
2018-06-08T19:48:27.182Z,9.50
2018-06-08T19:50:56.055Z,9.27
2018-06-08T19:53:24.517Z,8.30
2018-06-08T19:55:53.144Z,7.77
2018-06-08T19:58:21.687Z,8.67
2018-06-08T20:00:50.146Z,8.20
2018-06-08T20:03:18.601Z,9.07
2018-06-08T20:05:47.039Z,9.73
2018-06-08T20:08:15.451Z,8.23
2018-06-08T20:10:43.908Z,8.10
2018-06-08T20:13:12.344Z,10.13
2018-06-08T20:15:40.768Z,16.17
2018-06-08T20:18:09.230Z,8.83
2018-06-08T20:20:38.067Z,8.87
2018-06-08T20:23:06.526Z,7.50
2018-06-08T20:25:34.974Z,8.47
2018-06-08T20:28:03.368Z,7.13
2018-06-08T20:30:31.841Z,6.70
2018-06-08T20:33:00.282Z,13.17
2018-06-08T20:35:28.745Z,9.20
2018-06-08T20:37:57.147Z,7.83
2018-06-08T20:40:25.548Z,10.30
2018-06-08T20:42:53.999Z,7.40
2018-06-08T20:45:22.453Z,6.77
2018-06-08T20:47:51.039Z,7.20
2018-06-08T20:50:19.693Z,17.53
2018-06-08T20:52:48.123Z,12.17
2018-06-08T20:55:16.578Z,15.43
2018-06-08T20:57:56.082Z,11.63
2018-06-08T21:00:24.612Z,9.03
2018-06-08T21:02:53.029Z,7.17
2018-06-08T21:05:21.827Z,7.70
2018-06-08T21:07:50.258Z,7.33
2018-06-08T21:10:18.719Z,6.90
2018-06-08T21:12:47.176Z,7.27
2018-06-08T21:15:15.657Z,11.37
2018-06-08T21:17:44.200Z,7.67
2018-06-08T21:20:12.635Z,8.80
2018-06-08T21:22:41.098Z,7.67
2018-06-08T21:25:09.638Z,7.93
2018-06-08T21:27:38.067Z,7.50
2018-06-08T21:30:06.803Z,8.27
2018-06-08T21:32:35.393Z,9.37
2018-06-08T21:35:03.822Z,8.43
2018-06-08T21:37:32.259Z,7.70
2018-06-08T21:40:00.867Z,8.03
2018-06-08T21:42:29.268Z,7.40
2018-06-08T21:44:57.667Z,9.23
2018-06-08T21:47:26.088Z,12.57
2018-06-08T21:49:54.687Z,10.60
2018-06-08T21:52:23.247Z,10.43
2018-06-08T21:54:51.706Z,10.13
2018-06-08T21:57:20.159Z,13.13
2018-06-08T21:59:48.575Z,11.37
2018-06-08T22:02:17.018Z,16.93
2018-06-08T22:04:45.621Z,13.13
2018-06-08T22:07:14.293Z,18.17
2018-06-08T22:09:42.823Z,13.30
2018-06-08T22:12:11.266Z,28.90
2018-06-08T22:14:39.723Z,16.87
2018-06-08T22:17:08.147Z,11.50
2018-06-08T22:19:36.791Z,10.27
2018-06-08T22:22:05.279Z,10.87
2018-06-08T22:24:33.788Z,9.20
2018-06-08T22:27:02.478Z,16.33
2018-06-08T22:29:30.958Z,8.23
2018-06-08T22:31:59.371Z,8.97
2018-06-08T22:34:28.057Z,9.90
2018-06-08T22:36:56.663Z,8.97
2018-06-08T22:39:25.132Z,10.10
2018-06-08T22:41:53.563Z,8.73
2018-06-08T22:44:21.999Z,8.70
2018-06-08T22:46:50.486Z,9.30
2018-06-08T22:49:18.908Z,8.73
2018-06-08T22:51:47.432Z,8.77
2018-06-08T22:54:16.153Z,8.70
2018-06-08T22:56:44.665Z,8.20
2018-06-08T22:59:13.346Z,8.67
2018-06-08T23:01:42.079Z,20.83
2018-06-08T23:04:10.540Z,8.97
2018-06-08T23:06:38.983Z,7.70
2018-06-08T23:09:08.651Z,8.07
2018-06-08T23:11:37.575Z,9.67
2018-06-08T23:14:06.011Z,7.30
2018-06-08T23:16:34.427Z,8.33
2018-06-08T23:19:02.899Z,8.00
2018-06-08T23:21:31.588Z,8.30
2018-06-08T23:23:59.999Z,7.40
2018-06-08T23:26:28.432Z,8.30
2018-06-08T23:28:56.866Z,9.60
2018-06-08T23:31:25.455Z,8.83
2018-06-08T23:33:54.164Z,7.50
2018-06-08T23:36:22.803Z,8.63
2018-06-08T23:38:51.479Z,75.10
2018-06-08T23:41:20.103Z,18.87
2018-06-08T23:43:48.589Z,9.27
2018-06-08T23:46:17.075Z,8.70
2018-06-08T23:48:45.600Z,8.10
2018-06-08T23:51:14.059Z,7.97
2018-06-08T23:53:42.524Z,8.60
2018-06-08T23:56:11.409Z,8.27
2018-06-08T23:58:39.914Z,9.07
